Time;durP1;ratioP1;P1;durP2;ratioP2;P2;SDS_P1;SDS_P2;PMS_P1;PMS_P2;Temp;Humidity;BMP_temperature;BMP_pressure;BME280_temperature;BME280_humidity;BME280_pressure;Samples;Min_cycle;Max_cycle;Signal;HPM_P1;HPM_P2
2022/03/07 00:01:31;;;;;;;7.80;2.80;;;;;;;;;;5018639;28;20034;-92
2022/03/07 00:03:57;;;;;;;7.50;3.15;;;;;;;;;;5036474;28;20114;-91
2022/03/07 00:06:24;;;;;;;9.20;3.70;;;;;;;;;;5018632;28;20042;-93
2022/03/07 00:08:50;;;;;;;9.18;3.45;;;;;;;;;;5018652;28;20041;-93
2022/03/07 00:11:16;;;;;;;8.40;3.90;;;;;;;;;;5002135;28;20047;-92
2022/03/07 00:13:43;;;;;;;9.55;3.65;;;;;;;;;;5018768;28;20041;-91
2022/03/07 00:16:09;;;;;;;7.57;3.70;;;;;;;;;;5018528;28;20041;-92
2022/03/07 00:18:36;;;;;;;10.20;4.25;;;;;;;;;;5018854;28;20048;-93
2022/03/07 00:21:02;;;;;;;8.02;4.18;;;;;;;;;;5018418;28;20115;-94
2022/03/07 00:23:28;;;;;;;9.00;4.43;;;;;;;;;;5018454;28;20048;-93
2022/03/07 00:25:54;;;;;;;9.88;4.05;;;;;;;;;;5001806;28;20034;-94
2022/03/07 00:28:20;;;;;;;9.98;4.00;;;;;;;;;;5018584;28;20141;-91
2022/03/07 00:30:46;;;;;;;7.50;3.70;;;;;;;;;;5018269;28;20408;-92
2022/03/07 00:33:14;;;;;;;9.55;4.13;;;;;;;;;;5018228;28;20045;-90
2022/03/07 00:35:40;;;;;;;8.38;3.70;;;;;;;;;;5001453;28;20041;-94
2022/03/07 00:38:06;;;;;;;7.50;3.50;;;;;;;;;;5018224;28;20184;-93
2022/03/07 00:40:33;;;;;;;6.75;3.70;;;;;;;;;;5016902;28;20049;-93
2022/03/07 00:42:59;;;;;;;10.60;3.55;;;;;;;;;;5018226;28;20041;-93
2022/03/07 00:45:25;;;;;;;10.18;5.15;;;;;;;;;;5018211;28;20037;-92
2022/03/07 00:47:51;;;;;;;8.35;5.07;;;;;;;;;;5017720;28;20033;-93
2022/03/07 00:50:17;;;;;;;11.25;5.57;;;;;;;;;;5017896;28;20076;-93
2022/03/07 00:52:43;;;;;;;9.90;5.18;;;;;;;;;;5001386;28;20049;-93
2022/03/07 00:55:10;;;;;;;6.75;4.40;;;;;;;;;;5017745;28;20049;-91
2022/03/07 00:57:36;;;;;;;7.93;4.63;;;;;;;;;;5017546;28;20485;-91
2022/03/07 01:00:02;;;;;;;8.63;4.28;;;;;;;;;;5017643;28;20443;-91
2022/03/07 01:02:28;;;;;;;7.60;4.88;;;;;;;;;;5019440;28;20455;-91
2022/03/07 01:04:55;;;;;;;9.27;4.75;;;;;;;;;;5017774;28;20080;-92
2022/03/07 01:07:21;;;;;;;8.80;4.40;;;;;;;;;;5017504;28;20116;-94
2022/03/07 01:09:47;;;;;;;8.32;4.70;;;;;;;;;;5017708;28;20076;-91
2022/03/07 01:12:13;;;;;;;8.13;5.05;;;;;;;;;;5017707;28;20046;-94
2022/03/07 01:14:39;;;;;;;8.38;5.10;;;;;;;;;;5017796;28;20077;-92
2022/03/07 01:17:05;;;;;;;9.50;4.93;;;;;;;;;;5017350;28;20049;-93
2022/03/07 01:19:31;;;;;;;7.18;4.30;;;;;;;;;;5017255;28;20346;-94
2022/03/07 01:21:57;;;;;;;6.82;4.45;;;;;;;;;;5017270;28;20041;-92
2022/03/07 01:24:23;;;;;;;6.63;4.25;;;;;;;;;;5018278;28;20045;-92
2022/03/07 01:26:49;;;;;;;7.00;4.35;;;;;;;;;;5001458;28;20068;-94
2022/03/07 01:29:16;;;;;;;8.27;4.40;;;;;;;;;;5017653;28;20493;-92
2022/03/07 01:31:42;;;;;;;7.90;4.18;;;;;;;;;;5017335;28;20076;-93
2022/03/07 01:34:08;;;;;;;6.60;3.92;;;;;;;;;;5017559;28;20511;-93
2022/03/07 01:36:35;;;;;;;7.07;4.30;;;;;;;;;;5017315;28;20060;-92
2022/03/07 01:39:01;;;;;;;8.30;4.05;;;;;;;;;;5016982;28;20056;-93
2022/03/07 01:41:27;;;;;;;7.57;4.22;;;;;;;;;;5000935;28;20049;-93
2022/03/07 01:43:53;;;;;;;8.65;4.00;;;;;;;;;;5017178;28;20049;-93
2022/03/07 01:46:19;;;;;;;9.00;5.03;;;;;;;;;;5016815;28;20037;-93
2022/03/07 01:48:45;;;;;;;8.82;4.40;;;;;;;;;;5017341;28;20076;-93
2022/03/07 01:51:13;;;;;;;7.40;4.03;;;;;;;;;;5000367;28;20084;-92
2022/03/07 01:53:39;;;;;;;7.30;4.00;;;;;;;;;;5017438;28;20056;-92
2022/03/07 01:56:07;;;;;;;4.82;2.45;;;;;;;;;;5016813;28;20167;-91
2022/03/07 01:58:33;;;;;;;83.70;6.57;;;;;;;;;;5016595;28;20045;-92
2022/03/07 02:00:59;;;;;;;83.95;7.10;;;;;;;;;;5016812;28;20073;-94
2022/03/07 02:03:25;;;;;;;28.95;4.90;;;;;;;;;;5016767;28;20084;-94
2022/03/07 02:05:51;;;;;;;22.92;4.38;;;;;;;;;;5034168;28;20037;-93
2022/03/07 02:08:17;;;;;;;66.63;7.25;;;;;;;;;;5016495;28;20045;-93
2022/03/07 02:10:43;;;;;;;70.60;6.85;;;;;;;;;;5016642;28;20042;-92
2022/03/07 02:13:10;;;;;;;31.75;4.65;;;;;;;;;;5034070;28;20037;-92
2022/03/07 02:15:36;;;;;;;27.45;4.05;;;;;;;;;;4999834;28;20444;-93
2022/03/07 02:18:02;;;;;;;6.57;2.70;;;;;;;;;;5000118;28;20048;-92
2022/03/07 02:20:28;;;;;;;9.25;3.10;;;;;;;;;;5016286;28;20106;-94
2022/03/07 02:22:54;;;;;;;6.60;3.35;;;;;;;;;;5016462;28;20120;-95
2022/03/07 02:25:20;;;;;;;9.98;3.47;;;;;;;;;;5016342;28;20503;-93
2022/03/07 02:27:46;;;;;;;86.88;6.25;;;;;;;;;;5016243;28;20048;-92
2022/03/07 02:30:12;;;;;;;33.50;5.30;;;;;;;;;;5016621;28;20113;-93
2022/03/07 02:32:40;;;;;;;9.65;5.15;;;;;;;;;;5021398;28;20097;-95
2022/03/07 02:35:06;;;;;;;50.20;6.35;;;;;;;;;;5047043;23;20053;-93
2022/03/07 02:37:33;;;;;;;29.25;4.70;;;;;;;;;;5033081;28;20052;-92
2022/03/07 02:39:59;;;;;;;6.68;3.13;;;;;;;;;;5035186;28;20049;-92
2022/03/07 02:42:25;;;;;;;27.17;4.10;;;;;;;;;;5032588;28;20041;-91
2022/03/07 02:44:51;;;;;;;27.58;3.95;;;;;;;;;;5032627;28;20045;-92
2022/03/07 02:47:17;;;;;;;7.30;4.18;;;;;;;;;;5032220;28;20116;-94
2022/03/07 02:49:43;;;;;;;7.50;4.03;;;;;;;;;;5032624;28;20049;-94
2022/03/07 02:52:09;;;;;;;10.57;4.40;;;;;;;;;;5016164;28;20651;-92
2022/03/07 02:54:35;;;;;;;9.90;4.45;;;;;;;;;;5032707;28;20098;-94
2022/03/07 02:57:01;;;;;;;12.32;5.35;;;;;;;;;;5016109;28;20038;-92
2022/03/07 02:59:27;;;;;;;10.82;4.65;;;;;;;;;;5032218;28;20045;-92
2022/03/07 03:01:53;;;;;;;8.50;5.20;;;;;;;;;;5032212;28;20064;-92
2022/03/07 03:04:19;;;;;;;8.30;4.45;;;;;;;;;;5031796;28;20069;-93
2022/03/07 03:06:45;;;;;;;8.85;4.20;;;;;;;;;;5032481;28;20037;-94
2022/03/07 03:09:12;;;;;;;9.80;4.65;;;;;;;;;;5032232;28;20045;-94
2022/03/07 03:11:38;;;;;;;9.63;4.60;;;;;;;;;;5016060;28;20038;-92
2022/03/07 03:14:06;;;;;;;11.20;4.70;;;;;;;;;;5032425;28;20037;-95
2022/03/07 03:16:32;;;;;;;8.90;4.65;;;;;;;;;;5015723;28;20077;-91
2022/03/07 03:18:58;;;;;;;7.80;4.80;;;;;;;;;;5032145;28;20041;-92
2022/03/07 03:21:24;;;;;;;7.20;3.95;;;;;;;;;;5032233;28;20048;-92
2022/03/07 03:23:50;;;;;;;9.85;4.30;;;;;;;;;;5032262;28;20041;-94
2022/03/07 03:26:16;;;;;;;7.15;3.83;;;;;;;;;;5032185;28;20109;-94
2022/03/07 03:28:42;;;;;;;13.57;4.72;;;;;;;;;;5032295;28;20045;-93
2022/03/07 03:31:11;;;;;;;14.23;6.28;;;;;;;;;;5032268;28;20550;-93
2022/03/07 03:33:37;;;;;;;10.63;5.50;;;;;;;;;;5016098;28;20049;-92
2022/03/07 03:36:03;;;;;;;11.05;5.53;;;;;;;;;;5031919;28;20595;-91
2022/03/07 03:38:29;;;;;;;10.15;5.10;;;;;;;;;;5032085;28;20037;-93
2022/03/07 03:40:55;;;;;;;9.00;5.03;;;;;;;;;;5031914;28;20053;-92
2022/03/07 03:43:22;;;;;;;8.93;5.30;;;;;;;;;;5015460;28;20077;-92
2022/03/07 03:45:48;;;;;;;8.10;4.40;;;;;;;;;;5031893;28;20084;-94
2022/03/07 03:48:14;;;;;;;12.40;4.80;;;;;;;;;;5031918;28;20045;-93
2022/03/07 03:50:40;;;;;;;12.85;5.25;;;;;;;;;;5032051;28;20485;-91
2022/03/07 03:53:06;;;;;;;10.13;4.95;;;;;;;;;;5032323;28;20045;-91
2022/03/07 03:55:32;;;;;;;9.82;5.30;;;;;;;;;;5031743;28;20103;-92
2022/03/07 03:57:58;;;;;;;11.50;5.55;;;;;;;;;;5031650;28;20043;-94
2022/03/07 04:00:24;;;;;;;9.10;4.82;;;;;;;;;;5031759;28;20038;-93
2022/03/07 04:02:51;;;;;;;10.70;5.72;;;;;;;;;;5032075;28;20068;-94
2022/03/07 04:05:17;;;;;;;11.73;5.40;;;;;;;;;;5032030;28;20037;-93
2022/03/07 04:07:43;;;;;;;9.48;5.30;;;;;;;;;;5031644;28;20041;-93
2022/03/07 04:10:11;;;;;;;10.30;5.00;;;;;;;;;;5031849;28;20132;-93
2022/03/07 04:12:37;;;;;;;9.93;4.88;;;;;;;;;;5031707;28;20512;-93
2022/03/07 04:15:03;;;;;;;11.95;5.50;;;;;;;;;;5016512;28;20128;-91
2022/03/07 04:17:29;;;;;;;11.20;5.55;;;;;;;;;;5035344;28;20064;-93
2022/03/07 04:19:55;;;;;;;9.75;5.13;;;;;;;;;;5037243;28;20049;-93
2022/03/07 04:22:21;;;;;;;13.13;5.32;;;;;;;;;;5035259;28;20128;-94
2022/03/07 04:24:47;;;;;;;11.10;4.72;;;;;;;;;;5035064;28;20472;-92
2022/03/07 04:27:13;;;;;;;9.98;5.05;;;;;;;;;;5034990;28;20133;-92
2022/03/07 04:29:39;;;;;;;12.48;4.85;;;;;;;;;;5034819;28;20096;-93
2022/03/07 04:32:05;;;;;;;10.02;4.88;;;;;;;;;;5035145;28;20128;-92
2022/03/07 04:34:31;;;;;;;13.10;4.85;;;;;;;;;;5034604;28;20152;-92
2022/03/07 04:36:57;;;;;;;11.98;5.43;;;;;;;;;;5035164;28;20152;-95
2022/03/07 04:39:23;;;;;;;9.70;5.13;;;;;;;;;;5018209;28;20157;-93
2022/03/07 04:41:49;;;;;;;7.82;4.88;;;;;;;;;;5035240;28;20204;-92
2022/03/07 04:44:15;;;;;;;13.02;5.25;;;;;;;;;;5035060;28;20109;-93
2022/03/07 04:46:41;;;;;;;13.05;5.60;;;;;;;;;;5034685;28;20285;-94
2022/03/07 04:49:10;;;;;;;10.40;5.10;;;;;;;;;;5035114;28;20103;-93
2022/03/07 04:51:36;;;;;;;11.68;5.32;;;;;;;;;;5034761;28;20496;-93
2022/03/07 04:54:03;;;;;;;10.40;5.50;;;;;;;;;;5017755;28;20041;-94
2022/03/07 04:56:29;;;;;;;11.50;5.10;;;;;;;;;;5018087;28;20042;-93
2022/03/07 04:58:55;;;;;;;7.60;5.07;;;;;;;;;;5034518;28;20107;-92
2022/03/07 05:01:21;;;;;;;9.00;4.82;;;;;;;;;;5034587;28;20045;-92
2022/03/07 05:03:47;;;;;;;10.73;4.75;;;;;;;;;;5034546;28;20041;-92
2022/03/07 05:06:13;;;;;;;10.25;4.90;;;;;;;;;;5034345;28;20095;-92
2022/03/07 05:08:39;;;;;;;10.77;4.80;;;;;;;;;;5034235;28;20451;-93
2022/03/07 05:11:05;;;;;;;9.88;4.80;;;;;;;;;;5034500;28;20037;-91
2022/03/07 05:13:31;;;;;;;8.48;4.15;;;;;;;;;;5033927;28;20041;-92
2022/03/07 05:15:57;;;;;;;7.75;4.32;;;;;;;;;;5033951;28;20092;-92
2022/03/07 05:18:23;;;;;;;10.10;4.63;;;;;;;;;;5033913;28;20038;-92
2022/03/07 05:20:49;;;;;;;9.82;4.25;;;;;;;;;;5033846;28;20049;-92
2022/03/07 05:23:15;;;;;;;8.50;4.22;;;;;;;;;;5034119;28;20048;-93
2022/03/07 05:25:41;;;;;;;10.13;4.38;;;;;;;;;;5033460;28;20037;-91
2022/03/07 05:28:07;;;;;;;8.52;4.35;;;;;;;;;;5034084;28;20064;-92
2022/03/07 05:30:33;;;;;;;6.97;4.03;;;;;;;;;;5017308;28;20047;-92
2022/03/07 05:32:59;;;;;;;9.27;4.55;;;;;;;;;;5034323;28;20076;-94
2022/03/07 05:35:25;;;;;;;16.23;4.53;;;;;;;;;;5033774;28;20049;-95
2022/03/07 05:37:51;;;;;;;30.35;6.53;;;;;;;;;;5035027;28;20053;-92
2022/03/07 05:40:18;;;;;;;13.02;5.40;;;;;;;;;;5017062;28;20041;-93
2022/03/07 05:42:44;;;;;;;10.75;5.15;;;;;;;;;;5033803;28;20037;-93
2022/03/07 05:45:11;;;;;;;12.02;5.30;;;;;;;;;;5016933;28;20041;-93
2022/03/07 05:47:38;;;;;;;10.07;5.20;;;;;;;;;;5033579;28;20124;-92
2022/03/07 05:50:04;;;;;;;13.68;5.30;;;;;;;;;;5034369;28;20042;-92
2022/03/07 05:52:31;;;;;;;10.90;4.65;;;;;;;;;;5033425;28;20049;-93
2022/03/07 05:54:57;;;;;;;11.48;4.72;;;;;;;;;;5033273;28;20049;-93
2022/03/07 05:57:23;;;;;;;11.60;5.60;;;;;;;;;;5033592;28;20048;-92
2022/03/07 05:59:49;;;;;;;11.68;5.18;;;;;;;;;;5033209;28;20052;-93
2022/03/07 06:02:15;;;;;;;14.80;5.75;;;;;;;;;;5033517;28;20041;-92
2022/03/07 06:04:42;;;;;;;10.98;5.05;;;;;;;;;;5034982;28;20116;-92
2022/03/07 06:07:08;;;;;;;9.35;4.78;;;;;;;;;;5032856;28;20077;-92
2022/03/07 06:09:34;;;;;;;8.80;4.60;;;;;;;;;;5016478;28;20038;-92
2022/03/07 06:12:00;;;;;;;8.02;4.43;;;;;;;;;;5033208;28;20045;-93
2022/03/07 06:14:26;;;;;;;9.60;5.38;;;;;;;;;;5017250;28;20041;-94
2022/03/07 06:16:52;;;;;;;11.00;5.03;;;;;;;;;;5033265;28;20049;-93
2022/03/07 06:19:18;;;;;;;10.13;4.90;;;;;;;;;;5032782;28;20064;-92
2022/03/07 06:21:44;;;;;;;8.80;5.13;;;;;;;;;;5033072;28;20506;-93
2022/03/07 06:24:11;;;;;;;9.60;6.07;;;;;;;;;;5016442;28;20048;-92
2022/03/07 06:26:37;;;;;;;10.20;5.65;;;;;;;;;;5033266;28;20044;-90
2022/03/07 06:29:03;;;;;;;10.32;5.82;;;;;;;;;;5033114;28;20037;-92
2022/03/07 06:31:29;;;;;;;10.63;5.93;;;;;;;;;;5032737;28;20034;-92
2022/03/07 06:33:55;;;;;;;9.55;6.00;;;;;;;;;;5016440;28;20045;-93
2022/03/07 06:36:21;;;;;;;10.52;5.18;;;;;;;;;;5032438;28;20052;-92
2022/03/07 06:38:47;;;;;;;11.18;5.22;;;;;;;;;;5015533;28;20370;-93
2022/03/07 06:41:13;;;;;;;8.95;5.68;;;;;;;;;;5032492;28;20053;-92
2022/03/07 06:43:39;;;;;;;10.77;6.55;;;;;;;;;;5032079;28;20041;-93
2022/03/07 06:46:05;;;;;;;9.25;5.15;;;;;;;;;;5032245;28;20056;-92
2022/03/07 06:48:33;;;;;;;9.02;4.57;;;;;;;;;;5032019;28;20489;-94
2022/03/07 06:50:59;;;;;;;10.70;5.55;;;;;;;;;;5032012;28;20068;-92
2022/03/07 06:53:25;;;;;;;9.82;5.43;;;;;;;;;;5032413;28;20099;-92
2022/03/07 06:55:51;;;;;;;9.95;4.50;;;;;;;;;;5031735;28;20041;-92
2022/03/07 06:58:18;;;;;;;9.90;5.15;;;;;;;;;;5016026;28;20497;-94
2022/03/07 07:00:44;;;;;;;8.50;4.93;;;;;;;;;;5031947;28;20524;-92
2022/03/07 07:03:10;;;;;;;9.55;5.88;;;;;;;;;;5032082;28;20045;-92
2022/03/07 07:05:36;;;;;;;10.38;5.30;;;;;;;;;;5031988;28;20400;-93
2022/03/07 07:08:03;;;;;;;10.18;4.28;;;;;;;;;;5032081;28;20056;-93
2022/03/07 07:10:29;;;;;;;11.38;4.50;;;;;;;;;;5031944;28;20064;-93
2022/03/07 07:12:55;;;;;;;7.40;4.88;;;;;;;;;;5031952;28;20095;-92
2022/03/07 07:15:21;;;;;;;10.82;4.75;;;;;;;;;;5015386;28;20060;-93
2022/03/07 07:17:47;;;;;;;10.30;4.93;;;;;;;;;;5031821;28;20076;-92
2022/03/07 07:20:14;;;;;;;9.05;5.07;;;;;;;;;;5031765;28;20077;-91
2022/03/07 07:22:40;;;;;;;12.32;5.72;;;;;;;;;;5032144;28;20603;-96
2022/03/07 07:25:07;;;;;;;11.20;5.13;;;;;;;;;;5031947;28;20084;-93
2022/03/07 07:27:33;;;;;;;10.70;5.72;;;;;;;;;;5031933;28;20037;-93
2022/03/07 07:29:59;;;;;;;11.90;5.35;;;;;;;;;;5031764;28;20045;-93
2022/03/07 07:32:25;;;;;;;10.48;5.22;;;;;;;;;;5032117;28;20400;-91
2022/03/07 07:34:51;;;;;;;11.57;5.18;;;;;;;;;;5031853;28;20440;-92
2022/03/07 07:37:17;;;;;;;12.20;6.07;;;;;;;;;;5032762;28;20040;-89
2022/03/07 07:39:43;;;;;;;9.93;5.70;;;;;;;;;;5052471;28;20484;-94
2022/03/07 07:42:09;;;;;;;11.63;6.78;;;;;;;;;;5015330;28;20045;-94
2022/03/07 07:44:35;;;;;;;13.80;7.05;;;;;;;;;;5031966;28;20432;-95
2022/03/07 07:47:01;;;;;;;12.82;6.78;;;;;;;;;;5015192;28;20049;-93
2022/03/07 07:49:29;;;;;;;10.07;6.10;;;;;;;;;;5033666;28;20037;-93
2022/03/07 07:51:55;;;;;;;10.35;6.57;;;;;;;;;;5018997;28;20182;-95
2022/03/07 07:54:21;;;;;;;10.13;6.68;;;;;;;;;;5020548;28;20197;-94
2022/03/07 07:56:47;;;;;;;10.75;6.53;;;;;;;;;;5035619;28;20041;-93
2022/03/07 07:59:13;;;;;;;12.30;6.28;;;;;;;;;;5035894;28;20114;-93
2022/03/07 08:01:39;;;;;;;13.40;7.82;;;;;;;;;;5017909;28;20037;-94
2022/03/07 08:04:05;;;;;;;13.52;6.97;;;;;;;;;;5040811;28;20041;-94
2022/03/07 08:06:31;;;;;;;11.95;7.20;;;;;;;;;;5032611;28;20047;-95
2022/03/07 08:08:57;;;;;;;11.05;6.47;;;;;;;;;;5039278;28;20042;-93
2022/03/07 08:11:26;;;;;;;13.63;7.32;;;;;;;;;;5043286;28;20049;-93
2022/03/07 08:13:54;;;;;;;12.55;7.05;;;;;;;;;;5039953;28;20045;-94
2022/03/07 08:16:21;;;;;;;11.90;7.18;;;;;;;;;;5040895;28;20046;-94
2022/03/07 08:18:47;;;;;;;14.55;6.93;;;;;;;;;;5022062;28;20037;-95
2022/03/07 08:21:13;;;;;;;12.65;7.15;;;;;;;;;;5043641;28;20041;-92
2022/03/07 08:23:39;;;;;;;14.82;7.28;;;;;;;;;;5031541;28;20037;-95
2022/03/07 08:26:05;;;;;;;11.73;6.30;;;;;;;;;;5022458;28;20476;-95
2022/03/07 08:28:31;;;;;;;13.35;6.85;;;;;;;;;;5019767;28;20038;-94
2022/03/07 08:30:57;;;;;;;10.95;6.38;;;;;;;;;;5035949;28;20147;-92
2022/03/07 08:33:24;;;;;;;10.63;6.65;;;;;;;;;;5019625;28;20045;-94
2022/03/07 08:35:52;;;;;;;11.75;6.82;;;;;;;;;;5018535;28;20250;-94
2022/03/07 08:38:20;;;;;;;9.32;5.28;;;;;;;;;;5033544;28;20080;-96
2022/03/07 08:40:48;;;;;;;12.35;6.05;;;;;;;;;;5011870;28;20125;-95
2022/03/07 08:43:14;;;;;;;10.13;4.75;;;;;;;;;;5111617;22;20056;-94
2022/03/07 08:45:40;;;;;;;8.85;5.30;;;;;;;;;;4996437;28;20457;-94
2022/03/07 08:48:06;;;;;;;8.90;4.78;;;;;;;;;;4980387;28;20512;-95
2022/03/07 08:50:32;;;;;;;8.27;4.68;;;;;;;;;;4997042;28;20498;-96
2022/03/07 08:52:58;;;;;;;9.27;4.40;;;;;;;;;;4996338;28;20130;-93
2022/03/07 08:55:24;;;;;;;8.23;4.35;;;;;;;;;;4995744;28;20133;-95
2022/03/07 08:57:50;;;;;;;8.93;4.30;;;;;;;;;;4995540;28;20041;-95
2022/03/07 09:00:16;;;;;;;10.07;4.07;;;;;;;;;;4995325;28;20039;-94
2022/03/07 09:02:42;;;;;;;8.93;4.03;;;;;;;;;;4994767;28;20034;-92
2022/03/07 09:05:08;;;;;;;8.82;4.07;;;;;;;;;;4994950;28;20508;-93
2022/03/07 09:07:34;;;;;;;7.70;4.00;;;;;;;;;;4994985;28;20061;-93
2022/03/07 09:10:00;;;;;;;9.63;3.63;;;;;;;;;;4978667;28;20046;-93
2022/03/07 09:12:30;;;;;;;7.22;3.58;;;;;;;;;;4994871;28;20046;-93
2022/03/07 09:15:01;;;;;;;7.75;3.47;;;;;;;;;;4995387;28;20042;-93
2022/03/07 09:17:27;;;;;;;9.20;3.20;;;;;;;;;;4988042;28;20038;-93
2022/03/07 09:19:58;;;;;;;7.88;2.70;;;;;;;;;;4995758;28;20046;-91
2022/03/07 09:22:24;;;;;;;6.90;2.67;;;;;;;;;;4976116;28;20045;-93
2022/03/07 09:24:51;;;;;;;7.32;2.30;;;;;;;;;;4967477;28;20042;-92
2022/03/07 09:27:16;;;;;;;6.45;2.97;;;;;;;;;;4955283;29;20125;-92
2022/03/07 09:29:42;;;;;;;9.82;3.17;;;;;;;;;;4955526;29;20522;-92
2022/03/07 09:32:09;;;;;;;6.70;2.55;;;;;;;;;;4939614;29;20043;-92
2022/03/07 09:34:36;;;;;;;9.15;2.90;;;;;;;;;;4955690;29;20059;-92
2022/03/07 09:37:04;;;;;;;7.53;2.78;;;;;;;;;;4957506;28;20102;-93
2022/03/07 09:39:31;;;;;;;9.75;2.70;;;;;;;;;;4973043;28;20147;-91
2022/03/07 09:41:58;;;;;;;7.43;2.58;;;;;;;;;;4972427;28;20054;-92
2022/03/07 09:44:24;;;;;;;8.07;2.97;;;;;;;;;;4958826;28;20113;-94
2022/03/07 09:46:50;;;;;;;8.35;2.90;;;;;;;;;;4976138;28;20042;-91
2022/03/07 09:49:18;;;;;;;6.18;2.42;;;;;;;;;;4976581;28;20411;-89
2022/03/07 09:51:44;;;;;;;8.65;2.45;;;;;;;;;;4972057;28;20047;-89
2022/03/07 09:54:10;;;;;;;9.18;2.53;;;;;;;;;;4958830;29;20039;-91
2022/03/07 09:56:37;;;;;;;10.07;3.30;;;;;;;;;;4955015;29;20071;-86
2022/03/07 09:59:03;;;;;;;9.50;3.17;;;;;;;;;;4983157;28;20034;-92
2022/03/07 10:01:29;;;;;;;8.60;3.13;;;;;;;;;;4994830;28;20050;-94
2022/03/07 10:04:08;;;;;;;9.07;3.60;;;;;;;;;;4993645;28;20043;-93
2022/03/07 10:06:34;;;;;;;7.60;3.13;;;;;;;;;;4994582;28;20525;-90
2022/03/07 10:09:01;;;;;;;7.10;3.10;;;;;;;;;;4992867;28;20053;-93
2022/03/07 10:11:28;;;;;;;13.35;3.22;;;;;;;;;;4978075;28;20165;-92
2022/03/07 10:13:57;;;;;;;9.55;3.30;;;;;;;;;;4973724;28;20043;-90
2022/03/07 10:16:23;;;;;;;7.47;3.10;;;;;;;;;;4974021;28;20057;-91
2022/03/07 10:18:54;;;;;;;8.75;3.42;;;;;;;;;;4973948;28;20050;-91
2022/03/07 10:21:22;;;;;;;8.90;3.30;;;;;;;;;;4973841;28;20069;-92
2022/03/07 10:23:54;;;;;;;8.90;3.47;;;;;;;;;;4973534;28;20129;-91
2022/03/07 10:26:24;;;;;;;13.75;4.13;;;;;;;;;;4974448;28;20034;-92
2022/03/07 10:29:08;;;;;;;10.00;4.18;;;;;;;;;;4960315;28;20482;-90
2022/03/07 10:31:34;;;;;;;10.43;3.47;;;;;;;;;;4975163;28;20074;-95
2022/03/07 10:34:04;;;;;;;7.35;3.17;;;;;;;;;;4975088;28;20051;-95
2022/03/07 10:36:35;;;;;;;9.20;3.25;;;;;;;;;;4974084;28;20534;-94
2022/03/07 10:39:01;;;;;;;10.15;3.75;;;;;;;;;;4973700;28;20553;-93
2022/03/07 10:41:37;;;;;;;8.45;3.63;;;;;;;;;;4973509;28;20102;-94
2022/03/07 10:44:06;;;;;;;13.50;3.40;;;;;;;;;;4974975;28;20055;-91
2022/03/07 10:46:32;;;;;;;7.32;2.80;;;;;;;;;;4973341;28;20053;-92
2022/03/07 10:48:58;;;;;;;7.85;2.80;;;;;;;;;;4973654;28;20427;-94
2022/03/07 10:51:25;;;;;;;9.63;3.10;;;;;;;;;;4974269;28;20051;-93
2022/03/07 10:53:51;;;;;;;8.68;3.05;;;;;;;;;;4965972;28;20066;-94
2022/03/07 10:56:18;;;;;;;8.63;2.63;;;;;;;;;;4979352;28;20054;-94
2022/03/07 10:58:52;;;;;;;6.97;2.50;;;;;;;;;;4969411;28;20110;-91
2022/03/07 11:01:29;;;;;;;10.73;3.67;;;;;;;;;;4956090;29;20490;-90
2022/03/07 11:03:55;;;;;;;9.73;3.10;;;;;;;;;;4954025;29;20399;-89
2022/03/07 11:06:21;;;;;;;10.73;2.88;;;;;;;;;;4955381;29;20047;-94
2022/03/07 11:08:47;;;;;;;8.63;3.13;;;;;;;;;;4956296;28;20050;-91
2022/03/07 11:11:13;;;;;;;8.85;2.95;;;;;;;;;;4955674;28;20113;-91
2022/03/07 11:13:39;;;;;;;8.18;2.55;;;;;;;;;;4954726;29;20130;-92
2022/03/07 11:16:06;;;;;;;8.23;2.60;;;;;;;;;;4955242;29;20097;-92
2022/03/07 11:18:33;;;;;;;8.00;1.88;;;;;;;;;;4956177;28;20090;-91
2022/03/07 11:21:00;;;;;;;6.75;1.75;;;;;;;;;;4956740;28;20053;-89
2022/03/07 11:23:26;;;;;;;6.82;2.20;;;;;;;;;;4956018;28;20126;-93
2022/03/07 11:25:54;;;;;;;6.22;2.08;;;;;;;;;;4943237;29;20035;-92
2022/03/07 11:28:24;;;;;;;5.95;1.88;;;;;;;;;;4961063;29;20094;-90
2022/03/07 11:30:50;;;;;;;6.65;2.00;;;;;;;;;;4970389;28;20070;-92
2022/03/07 11:33:17;;;;;;;8.23;2.17;;;;;;;;;;4961673;28;20051;-91
2022/03/07 11:35:44;;;;;;;5.38;2.22;;;;;;;;;;4976615;28;20423;-89
2022/03/07 11:38:21;;;;;;;5.53;1.88;;;;;;;;;;4976719;28;20046;-90
2022/03/07 11:40:57;;;;;;;5.82;2.00;;;;;;;;;;4977315;28;20081;-89
2022/03/07 11:43:24;;;;;;;5.20;1.70;;;;;;;;;;4973547;28;20057;-90
2022/03/07 11:45:50;;;;;;;6.22;2.20;;;;;;;;;;4975915;28;20118;-90
2022/03/07 11:48:16;;;;;;;5.75;2.20;;;;;;;;;;4977708;28;20041;-92
2022/03/07 11:50:42;;;;;;;8.20;2.05;;;;;;;;;;4976336;28;20047;-90
2022/03/07 11:53:08;;;;;;;7.60;2.13;;;;;;;;;;4975662;28;20486;-90
2022/03/07 11:55:42;;;;;;;9.88;2.20;;;;;;;;;;4975676;28;20131;-90
2022/03/07 11:58:08;;;;;;;7.85;2.25;;;;;;;;;;4976674;28;20058;-90
2022/03/07 12:00:36;;;;;;;5.20;1.92;;;;;;;;;;4976123;28;20510;-91
2022/03/07 12:03:13;;;;;;;4.82;2.00;;;;;;;;;;4976281;28;20047;-91
2022/03/07 12:05:39;;;;;;;5.78;1.33;;;;;;;;;;4975643;28;20402;-90
2022/03/07 12:08:16;;;;;;;5.15;1.80;;;;;;;;;;4976130;28;20437;-90
2022/03/07 12:10:53;;;;;;;4.75;1.60;;;;;;;;;;4975654;28;20486;-91
2022/03/07 12:13:19;;;;;;;5.60;1.25;;;;;;;;;;4976093;28;20042;-90
2022/03/07 12:15:46;;;;;;;6.85;1.98;;;;;;;;;;4975601;28;20514;-90
2022/03/07 12:18:13;;;;;;;4.22;1.25;;;;;;;;;;4977013;28;20042;-90
2022/03/07 12:20:49;;;;;;;3.70;1.20;;;;;;;;;;4975363;28;20038;-91
2022/03/07 12:23:17;;;;;;;5.50;1.27;;;;;;;;;;4975664;28;20398;-90
2022/03/07 12:25:43;;;;;;;4.75;1.70;;;;;;;;;;4975270;28;20074;-91
2022/03/07 12:28:10;;;;;;;3.78;1.50;;;;;;;;;;4980596;28;20035;-93
2022/03/07 12:30:36;;;;;;;5.28;1.40;;;;;;;;;;4977350;28;20042;-88
2022/03/07 12:33:06;;;;;;;6.07;1.50;;;;;;;;;;4979922;28;20039;-90
2022/03/07 12:35:32;;;;;;;4.00;1.10;;;;;;;;;;4975657;28;20372;-90
2022/03/07 12:37:58;;;;;;;3.20;1.40;;;;;;;;;;4975899;28;20074;-90
2022/03/07 12:40:25;;;;;;;4.45;1.60;;;;;;;;;;4975780;28;20054;-89
2022/03/07 12:42:51;;;;;;;4.13;1.38;;;;;;;;;;4975194;28;20047;-87
2022/03/07 12:45:18;;;;;;;2.95;1.33;;;;;;;;;;4975266;28;20496;-88
2022/03/07 12:47:44;;;;;;;3.53;1.20;;;;;;;;;;4976394;28;20497;-87
2022/03/07 12:50:11;;;;;;;4.50;1.50;;;;;;;;;;4974855;28;20558;-87
2022/03/07 12:52:37;;;;;;;4.82;1.80;;;;;;;;;;4975550;28;20125;-92
2022/03/07 12:55:10;;;;;;;5.20;1.80;;;;;;;;;;4977075;28;20047;-88
2022/03/07 12:57:36;;;;;;;4.55;1.60;;;;;;;;;;4975008;28;20038;-91
2022/03/07 13:00:10;;;;;;;5.25;1.80;;;;;;;;;;4973754;28;20498;-91
2022/03/07 13:02:37;;;;;;;5.90;1.52;;;;;;;;;;4973151;28;20229;-91
2022/03/07 13:05:05;;;;;;;5.50;2.13;;;;;;;;;;4974682;28;20126;-90
2022/03/07 13:07:31;;;;;;;4.35;1.40;;;;;;;;;;4958807;28;20042;-90
2022/03/07 13:10:05;;;;;;;4.85;1.52;;;;;;;;;;4974862;28;20046;-90
2022/03/07 13:12:33;;;;;;;4.07;1.50;;;;;;;;;;4974838;28;20054;-90
2022/03/07 13:15:02;;;;;;;3.45;1.40;;;;;;;;;;4958823;28;20050;-91
2022/03/07 13:17:28;;;;;;;3.92;1.30;;;;;;;;;;4974691;28;20093;-91
2022/03/07 13:19:54;;;;;;;7.22;2.25;;;;;;;;;;4974713;28;20047;-90
2022/03/07 13:22:20;;;;;;;3.90;1.63;;;;;;;;;;4958457;28;20038;-89
2022/03/07 13:24:54;;;;;;;3.75;1.70;;;;;;;;;;4958502;28;20364;-88
2022/03/07 13:27:23;;;;;;;5.32;1.55;;;;;;;;;;4974110;28;20039;-87
2022/03/07 13:29:49;;;;;;;4.65;1.50;;;;;;;;;;4975750;28;20426;-87
2022/03/07 13:32:19;;;;;;;11.23;5.72;;;;;;;;;;4974539;28;20486;-89
2022/03/07 13:34:46;;;;;;;3.25;1.60;;;;;;;;;;4974143;28;20073;-89
2022/03/07 13:37:17;;;;;;;4.95;1.52;;;;;;;;;;4973979;28;20046;-89
2022/03/07 13:39:43;;;;;;;4.28;1.70;;;;;;;;;;4974100;28;20088;-88
2022/03/07 13:42:14;;;;;;;3.92;1.48;;;;;;;;;;4973779;28;20134;-89
2022/03/07 13:44:54;;;;;;;4.70;1.92;;;;;;;;;;4973919;28;20055;-88
2022/03/07 13:47:24;;;;;;;7.20;1.60;;;;;;;;;;4973498;28;20501;-88
2022/03/07 13:49:52;;;;;;;3.75;1.50;;;;;;;;;;4973099;28;20090;-89
2022/03/07 13:52:20;;;;;;;4.32;1.70;;;;;;;;;;4955507;28;20050;-89
2022/03/07 13:54:47;;;;;;;4.25;1.52;;;;;;;;;;4947009;29;20043;-89
2022/03/07 13:57:13;;;;;;;4.95;1.65;;;;;;;;;;4954689;29;20097;-90
2022/03/07 13:59:39;;;;;;;3.97;1.33;;;;;;;;;;4955792;28;20043;-91
2022/03/07 14:02:15;;;;;;;4.40;1.95;;;;;;;;;;4960171;28;20106;-94
2022/03/07 14:04:53;;;;;;;4.40;1.48;;;;;;;;;;4948029;29;20040;-94
2022/03/07 14:07:23;;;;;;;3.58;1.58;;;;;;;;;;4939661;29;20045;-95
2022/03/07 14:09:53;;;;;;;6.07;1.90;;;;;;;;;;4967568;28;20038;-90
2022/03/07 14:12:31;;;;;;;5.28;1.73;;;;;;;;;;4984196;28;20207;-90
2022/03/07 14:14:58;;;;;;;4.80;2.10;;;;;;;;;;4973173;28;20482;-92
2022/03/07 14:17:24;;;;;;;7.22;2.45;;;;;;;;;;4972042;28;20066;-92
2022/03/07 14:19:50;;;;;;;4.97;2.00;;;;;;;;;;4956935;28;20121;-95
2022/03/07 14:22:19;;;;;;;4.57;2.00;;;;;;;;;;4976483;28;20056;-92
2022/03/07 14:24:46;;;;;;;6.15;2.72;;;;;;;;;;4970788;28;20388;-91
2022/03/07 14:27:12;;;;;;;5.78;2.15;;;;;;;;;;4964995;28;20395;-94
2022/03/07 14:29:38;;;;;;;5.75;2.20;;;;;;;;;;4973768;28;20402;-92
2022/03/07 14:32:05;;;;;;;5.80;1.85;;;;;;;;;;4973371;28;20105;-93
2022/03/07 14:34:31;;;;;;;7.60;2.55;;;;;;;;;;4957219;28;20048;-93
2022/03/07 14:36:57;;;;;;;6.80;2.17;;;;;;;;;;4964219;28;20114;-92